createdAt,value
2023-04-18T00:00:18.684Z,0.00
2023-04-18T00:01:18.593Z,0.00
2023-04-18T00:02:18.579Z,0.00
2023-04-18T00:03:18.635Z,0.00
2023-04-18T00:04:18.989Z,0.00
2023-04-18T00:05:18.364Z,0.00
2023-04-18T00:06:18.200Z,0.00
2023-04-18T00:07:18.103Z,0.00
2023-04-18T00:08:18.015Z,0.00
2023-04-18T00:09:17.951Z,0.00
2023-04-18T00:10:17.856Z,0.00
2023-04-18T00:11:17.776Z,0.00
2023-04-18T00:12:17.686Z,0.00
2023-04-18T00:13:17.614Z,0.00
2023-04-18T00:14:17.522Z,0.00
2023-04-18T00:15:17.450Z,0.00
2023-04-18T00:16:17.397Z,0.00
2023-04-18T00:17:17.284Z,0.00
2023-04-18T00:18:17.264Z,0.00
2023-04-18T00:19:17.122Z,0.00
2023-04-18T00:20:17.036Z,0.00
2023-04-18T00:21:16.957Z,0.00
2023-04-18T00:22:16.889Z,0.00
2023-04-18T00:23:16.811Z,0.00
2023-04-18T00:24:16.715Z,0.00
2023-04-18T00:25:16.630Z,0.00
2023-04-18T00:26:16.547Z,0.00
2023-04-18T00:27:16.478Z,0.00
2023-04-18T00:28:16.386Z,0.00
2023-04-18T00:29:16.302Z,0.00
2023-04-18T00:30:16.223Z,0.00
2023-04-18T00:31:16.164Z,0.00
2023-04-18T00:32:16.116Z,0.00
2023-04-18T00:33:15.983Z,0.00
2023-04-18T00:34:15.991Z,0.00
2023-04-18T00:35:15.839Z,0.00
2023-04-18T00:36:15.740Z,0.00
2023-04-18T00:37:15.657Z,0.00
2023-04-18T00:38:15.567Z,0.00
2023-04-18T00:39:15.493Z,0.00
2023-04-18T00:40:15.407Z,0.00
2023-04-18T00:41:15.328Z,0.00
2023-04-18T00:42:15.247Z,0.00
2023-04-18T00:43:15.197Z,0.00
2023-04-18T00:44:15.215Z,0.00
2023-04-18T00:45:15.012Z,0.00
2023-04-18T00:46:14.964Z,0.00
2023-04-18T00:47:14.835Z,0.00
2023-04-18T00:48:14.752Z,0.00
2023-04-18T00:49:14.674Z,0.00
2023-04-18T00:50:14.598Z,0.00
2023-04-18T00:51:14.514Z,0.00
2023-04-18T00:52:14.429Z,0.00
2023-04-18T00:53:14.351Z,0.00
2023-04-18T00:54:14.410Z,0.00
2023-04-18T00:55:14.211Z,0.00
2023-04-18T00:56:14.101Z,0.00
2023-04-18T00:57:14.028Z,0.00
2023-04-18T00:58:13.946Z,0.00
2023-04-18T00:59:13.869Z,0.00
2023-04-18T01:00:13.776Z,0.00
2023-04-18T01:01:13.720Z,0.00
2023-04-18T01:02:13.655Z,0.00
2023-04-18T01:03:13.653Z,0.00
2023-04-18T01:04:13.974Z,0.00
2023-04-18T01:05:13.371Z,0.00
2023-04-18T01:06:13.283Z,0.00
2023-04-18T01:07:13.201Z,0.00
2023-04-18T01:08:13.121Z,0.00
2023-04-18T01:09:13.040Z,0.00
2023-04-18T01:10:12.960Z,0.00
2023-04-18T01:11:12.875Z,0.00
2023-04-18T01:12:12.791Z,0.00
2023-04-18T01:13:12.715Z,0.00
2023-04-18T01:14:12.923Z,0.00
2023-04-18T01:15:12.558Z,0.00
2023-04-18T01:16:12.504Z,0.00
2023-04-18T01:17:12.392Z,0.00
2023-04-18T01:18:12.307Z,0.00
2023-04-18T01:19:12.218Z,0.00
2023-04-18T01:20:12.142Z,0.00
2023-04-18T01:21:12.053Z,0.00
2023-04-18T01:22:11.977Z,0.00
2023-04-18T01:23:11.888Z,0.00
2023-04-18T01:24:12.118Z,0.00
2023-04-18T01:25:11.731Z,0.00
2023-04-18T01:26:11.645Z,0.00
2023-04-18T01:27:11.727Z,0.00
2023-04-18T01:28:11.493Z,0.00
2023-04-18T01:29:11.488Z,0.00
2023-04-18T01:30:11.321Z,0.00
2023-04-18T01:31:11.286Z,0.00
2023-04-18T01:32:11.161Z,0.00
2023-04-18T01:33:11.095Z,0.00
2023-04-18T01:34:10.992Z,0.00
2023-04-18T01:35:10.916Z,0.00
2023-04-18T01:36:10.833Z,0.00
2023-04-18T01:37:10.755Z,0.00
2023-04-18T01:38:10.693Z,0.00
2023-04-18T01:39:10.606Z,0.00
2023-04-18T01:40:10.507Z,0.00
2023-04-18T01:41:10.420Z,0.00
2023-04-18T01:42:10.340Z,0.00
2023-04-18T01:43:10.255Z,0.00
2023-04-18T01:44:10.172Z,0.00
2023-04-18T01:45:10.100Z,0.00
2023-04-18T01:46:10.039Z,0.00
2023-04-18T01:47:09.928Z,0.00
2023-04-18T01:48:09.857Z,0.00
2023-04-18T01:49:09.763Z,0.00
2023-04-18T01:50:09.683Z,0.00
2023-04-18T01:51:09.599Z,0.00
2023-04-18T01:52:09.521Z,0.00
2023-04-18T01:53:09.436Z,0.00
2023-04-18T01:54:09.352Z,0.00
2023-04-18T01:55:09.273Z,0.00
2023-04-18T01:56:09.193Z,0.00
2023-04-18T01:57:09.116Z,0.00
2023-04-18T01:58:09.025Z,0.00
2023-04-18T01:59:08.946Z,0.00
2023-04-18T02:00:08.866Z,0.00
2023-04-18T02:01:08.816Z,0.00
2023-04-18T02:02:08.785Z,0.00
2023-04-18T02:03:08.740Z,0.00
2023-04-18T02:04:08.606Z,0.00
2023-04-18T02:05:08.457Z,0.00
2023-04-18T02:06:08.376Z,0.00
2023-04-18T02:07:08.285Z,0.00
2023-04-18T02:08:08.207Z,0.00
2023-04-18T02:09:08.126Z,0.00
2023-04-18T02:10:08.041Z,0.00
2023-04-18T02:11:07.969Z,0.00
2023-04-18T02:12:07.879Z,0.00
2023-04-18T02:13:07.802Z,0.00
2023-04-18T02:14:07.716Z,0.00
2023-04-18T02:15:07.654Z,0.00
2023-04-18T02:16:07.615Z,0.00
2023-04-18T02:17:07.469Z,0.00
2023-04-18T02:18:07.439Z,0.00
2023-04-18T02:19:07.303Z,0.00
2023-04-18T02:20:07.224Z,0.00
2023-04-18T02:21:07.165Z,0.00
2023-04-18T02:22:07.067Z,0.00
2023-04-18T02:23:06.982Z,0.00
2023-04-18T02:24:06.897Z,0.00
2023-04-18T02:25:06.816Z,0.00
2023-04-18T02:26:06.751Z,0.00
2023-04-18T02:27:06.651Z,0.00
2023-04-18T02:28:06.569Z,0.00
2023-04-18T02:29:06.491Z,0.00
2023-04-18T02:30:06.418Z,0.00
2023-04-18T02:31:06.326Z,0.00
2023-04-18T02:32:06.354Z,0.00
2023-04-18T02:33:06.175Z,0.00
2023-04-18T02:34:06.073Z,0.00
2023-04-18T02:35:05.997Z,0.00
2023-04-18T02:36:05.914Z,0.00
2023-04-18T02:37:05.831Z,0.00
2023-04-18T02:38:05.765Z,0.00
2023-04-18T02:39:05.668Z,0.00
2023-04-18T02:40:05.615Z,0.00
2023-04-18T02:41:05.502Z,0.00
2023-04-18T02:42:05.424Z,0.00
2023-04-18T02:43:05.337Z,0.00
2023-04-18T02:44:05.257Z,0.00
2023-04-18T02:45:05.176Z,0.00
2023-04-18T02:46:05.131Z,0.00
2023-04-18T02:47:05.019Z,0.00
2023-04-18T02:48:04.964Z,0.00
2023-04-18T02:49:04.847Z,0.00
2023-04-18T02:50:04.770Z,0.00
2023-04-18T02:51:04.709Z,0.00
2023-04-18T02:52:04.609Z,0.00
2023-04-18T02:53:04.515Z,0.00
2023-04-18T02:54:04.440Z,0.00
2023-04-18T02:55:04.364Z,0.00
2023-04-18T02:56:04.271Z,0.00
2023-04-18T02:57:04.188Z,0.00
2023-04-18T02:58:04.109Z,0.00
2023-04-18T02:59:04.021Z,0.00
2023-04-18T03:00:03.939Z,0.00
2023-04-18T03:01:03.881Z,0.00
2023-04-18T03:02:03.841Z,0.00
2023-04-18T03:03:03.877Z,0.00
2023-04-18T03:04:03.612Z,0.00
2023-04-18T03:05:03.554Z,0.00
2023-04-18T03:06:03.454Z,0.00
2023-04-18T03:07:03.365Z,0.00
2023-04-18T03:08:03.288Z,0.00
2023-04-18T03:09:03.202Z,0.00
2023-04-18T03:10:03.125Z,0.00
2023-04-18T03:11:03.042Z,0.00
2023-04-18T03:12:02.961Z,0.00
2023-04-18T03:13:02.909Z,0.00
2023-04-18T03:14:02.792Z,0.00
2023-04-18T03:15:02.703Z,0.00
2023-04-18T03:16:02.681Z,0.00
2023-04-18T03:17:02.549Z,0.00
2023-04-18T03:18:02.510Z,0.00
2023-04-18T03:19:02.495Z,0.00
2023-04-18T03:20:02.303Z,0.00
2023-04-18T03:21:02.223Z,0.00
2023-04-18T03:22:02.141Z,0.00
2023-04-18T03:23:02.056Z,0.00
2023-04-18T03:24:01.976Z,0.00
2023-04-18T03:25:01.901Z,0.00
2023-04-18T03:26:01.810Z,0.00
2023-04-18T03:27:01.724Z,0.00
2023-04-18T03:28:01.646Z,0.00
2023-04-18T03:29:01.556Z,0.00
2023-04-18T03:30:01.474Z,0.00
2023-04-18T03:31:01.432Z,0.00
2023-04-18T03:32:01.313Z,0.00
2023-04-18T03:33:01.302Z,0.00
2023-04-18T03:34:01.151Z,0.00
2023-04-18T03:35:01.071Z,0.00
2023-04-18T03:36:00.998Z,0.00
2023-04-18T03:37:00.908Z,0.00
2023-04-18T03:38:00.826Z,0.00
2023-04-18T03:39:00.743Z,0.00
2023-04-18T03:40:00.660Z,0.00
2023-04-18T03:41:00.580Z,0.00
2023-04-18T03:42:00.496Z,0.00
2023-04-18T03:43:00.408Z,0.00
2023-04-18T03:44:00.326Z,0.00
2023-04-18T03:45:00.246Z,0.00
2023-04-18T03:46:00.228Z,0.00
2023-04-18T03:47:00.100Z,0.00
2023-04-18T03:48:00.033Z,0.00
2023-04-18T03:48:59.917Z,0.00
2023-04-18T03:49:59.833Z,0.00
2023-04-18T03:50:59.780Z,0.00
2023-04-18T03:51:59.685Z,0.00
2023-04-18T03:52:59.588Z,0.00
2023-04-18T03:53:59.512Z,0.00
2023-04-18T03:54:59.433Z,0.00
2023-04-18T03:55:59.345Z,0.00
2023-04-18T03:56:59.261Z,0.00
2023-04-18T03:57:59.188Z,0.00
2023-04-18T03:58:59.101Z,0.00
2023-04-18T03:59:59.023Z,0.00
2023-04-18T04:00:58.937Z,0.00
2023-04-18T04:01:59.019Z,0.00
2023-04-18T04:02:58.838Z,0.00
2023-04-18T04:03:58.789Z,0.00
2023-04-18T04:04:58.705Z,0.00
2023-04-18T04:05:58.526Z,0.00
2023-04-18T04:06:58.439Z,0.00
2023-04-18T04:07:58.360Z,0.00
2023-04-18T04:08:58.287Z,0.00
2023-04-18T04:09:58.196Z,0.00
2023-04-18T04:10:58.111Z,0.00
2023-04-18T04:11:58.032Z,0.00
2023-04-18T04:12:57.946Z,0.00
2023-04-18T04:13:57.870Z,0.00
2023-04-18T04:14:57.786Z,0.00
2023-04-18T04:15:57.719Z,0.00
2023-04-18T04:16:57.619Z,0.00
2023-04-18T04:17:57.556Z,0.00
2023-04-18T04:18:57.459Z,0.00
2023-04-18T04:19:57.388Z,0.00
2023-04-18T04:20:57.291Z,0.00
2023-04-18T04:21:57.213Z,0.00
2023-04-18T04:22:57.140Z,0.00
2023-04-18T04:23:57.051Z,0.00
2023-04-18T04:24:56.962Z,0.00
2023-04-18T04:25:56.884Z,0.00
2023-04-18T04:26:56.796Z,0.00
2023-04-18T04:27:56.716Z,0.00
2023-04-18T04:28:56.641Z,0.00
2023-04-18T04:29:56.612Z,0.00
2023-04-18T04:30:56.466Z,0.00
2023-04-18T04:31:56.406Z,0.00
2023-04-18T04:32:56.342Z,0.00
2023-04-18T04:33:56.227Z,0.00
2023-04-18T04:34:56.150Z,0.00
2023-04-18T04:35:56.069Z,0.00
2023-04-18T04:36:55.980Z,0.00
2023-04-18T04:37:55.890Z,0.00
2023-04-18T04:38:55.845Z,0.00
2023-04-18T04:39:55.729Z,0.00
2023-04-18T04:40:55.642Z,0.00
2023-04-18T04:41:55.569Z,0.00
2023-04-18T04:42:55.477Z,0.00
2023-04-18T04:43:55.411Z,0.00
2023-04-18T04:44:55.349Z,0.00
2023-04-18T04:45:55.282Z,0.00
2023-04-18T04:46:55.158Z,0.00
2023-04-18T04:47:55.098Z,0.00
2023-04-18T04:48:54.987Z,0.00
2023-04-18T04:49:54.904Z,0.00
2023-04-18T04:50:54.822Z,0.00
2023-04-18T04:51:54.746Z,0.00
2023-04-18T04:52:54.662Z,0.00
2023-04-18T04:53:54.575Z,0.00
2023-04-18T04:54:54.494Z,0.00
2023-04-18T04:55:54.411Z,0.00
2023-04-18T04:56:54.337Z,5.63
2023-04-18T04:57:54.246Z,5.63
2023-04-18T04:58:54.218Z,5.63
2023-04-18T04:59:54.083Z,5.63
2023-04-18T05:00:54.101Z,5.63
2023-04-18T05:01:54.009Z,0.00
2023-04-18T05:02:53.913Z,0.00
2023-04-18T05:03:53.895Z,0.00
2023-04-18T05:04:53.669Z,0.00
2023-04-18T05:05:53.585Z,0.00
2023-04-18T05:06:53.513Z,0.00
2023-04-18T05:07:53.437Z,0.00
2023-04-18T05:08:53.341Z,0.00
2023-04-18T05:09:53.270Z,0.00
2023-04-18T05:10:53.174Z,0.00
2023-04-18T05:11:53.095Z,0.00
2023-04-18T05:12:53.016Z,0.00
2023-04-18T05:13:52.928Z,0.00
2023-04-18T05:14:52.848Z,0.00
2023-04-18T05:15:52.762Z,5.63
2023-04-18T05:16:52.697Z,5.63
2023-04-18T05:17:52.644Z,5.63
2023-04-18T05:18:52.518Z,5.63
2023-04-18T05:19:52.432Z,5.63
2023-04-18T05:20:52.353Z,5.63
2023-04-18T05:21:52.274Z,5.63
2023-04-18T05:22:52.191Z,16.88
2023-04-18T05:23:52.109Z,16.88
2023-04-18T05:24:52.041Z,11.25
2023-04-18T05:25:51.943Z,11.25
2023-04-18T05:26:51.966Z,11.25
2023-04-18T05:27:51.781Z,11.25
2023-04-18T05:28:51.703Z,11.25
2023-04-18T05:29:51.619Z,11.25
2023-04-18T05:30:51.589Z,11.25
2023-04-18T05:31:51.457Z,11.25
2023-04-18T05:32:51.398Z,5.63
2023-04-18T05:33:51.288Z,5.63
2023-04-18T05:34:51.226Z,5.63
2023-04-18T05:35:51.127Z,5.63
2023-04-18T05:36:51.040Z,11.25
2023-04-18T05:37:50.957Z,16.88
2023-04-18T05:38:50.888Z,22.50
2023-04-18T05:39:50.794Z,28.13
2023-04-18T05:40:50.713Z,28.13
2023-04-18T05:41:50.631Z,33.75
2023-04-18T05:42:50.552Z,33.75
2023-04-18T05:44:01.837Z,28.13
2023-04-18T05:44:50.386Z,28.13
2023-04-18T05:45:50.329Z,22.50
2023-04-18T05:46:50.220Z,22.50
2023-04-18T05:47:50.191Z,22.50
2023-04-18T05:48:50.062Z,22.50
2023-04-18T05:49:49.978Z,22.50
2023-04-18T05:50:49.896Z,22.50
2023-04-18T05:51:49.833Z,22.50
2023-04-18T05:52:49.729Z,22.50
2023-04-18T05:53:49.709Z,16.88
2023-04-18T05:54:49.564Z,16.88
2023-04-18T05:55:49.481Z,16.88
2023-04-18T05:56:49.413Z,16.88
2023-04-18T05:57:49.319Z,16.88
2023-04-18T05:58:49.245Z,16.88
2023-04-18T05:59:49.173Z,11.25
2023-04-18T06:00:49.077Z,11.25
2023-04-18T06:01:48.999Z,11.25
2023-04-18T06:02:49.071Z,11.25
2023-04-18T06:03:49.057Z,11.25
2023-04-18T06:04:48.936Z,11.25
2023-04-18T06:05:48.735Z,16.88
2023-04-18T06:06:48.586Z,16.88
2023-04-18T06:07:48.498Z,16.88
2023-04-18T06:08:48.424Z,22.50
2023-04-18T06:09:48.341Z,22.50
2023-04-18T06:10:48.255Z,22.50
2023-04-18T06:11:48.178Z,16.88
2023-04-18T06:12:48.095Z,16.88
2023-04-18T06:13:48.006Z,16.88
2023-04-18T06:14:47.931Z,16.88
2023-04-18T06:15:47.856Z,16.88
2023-04-18T06:16:47.764Z,16.88
2023-04-18T06:17:47.737Z,22.50
2023-04-18T06:18:47.601Z,22.50
2023-04-18T06:19:47.520Z,28.13
2023-04-18T06:20:47.437Z,28.13
2023-04-18T06:21:47.355Z,33.75
2023-04-18T06:22:47.273Z,33.75
2023-04-18T06:23:47.187Z,39.38
2023-04-18T06:24:47.120Z,39.38
2023-04-18T06:25:47.024Z,45.00
2023-04-18T06:26:46.944Z,45.00
2023-04-18T06:27:46.862Z,45.00
2023-04-18T06:28:46.784Z,45.00
2023-04-18T06:29:46.700Z,50.63
2023-04-18T06:30:46.892Z,50.63
2023-04-18T06:31:46.579Z,45.00
2023-04-18T06:32:46.545Z,50.63
2023-04-18T06:33:46.374Z,45.00
2023-04-18T06:34:46.293Z,45.00
2023-04-18T06:35:46.206Z,39.38
2023-04-18T06:36:46.130Z,33.75
2023-04-18T06:37:46.051Z,33.75
2023-04-18T06:38:45.958Z,28.13
2023-04-18T06:39:45.883Z,28.13
2023-04-18T06:40:45.800Z,22.50
2023-04-18T06:41:45.726Z,22.50
2023-04-18T06:42:45.636Z,16.88
2023-04-18T06:43:59.788Z,16.88
2023-04-18T06:44:45.474Z,22.50
2023-04-18T06:45:45.422Z,22.50
2023-04-18T06:46:45.340Z,16.88
2023-04-18T06:47:45.252Z,16.88
2023-04-18T06:48:45.148Z,16.88
2023-04-18T06:49:45.070Z,16.88
2023-04-18T06:50:44.984Z,16.88
2023-04-18T06:51:44.902Z,22.50
2023-04-18T06:52:44.815Z,28.13
2023-04-18T06:53:44.735Z,28.13
2023-04-18T06:54:44.658Z,28.13
2023-04-18T06:55:44.563Z,28.13
2023-04-18T06:56:44.489Z,33.75
2023-04-18T06:57:44.401Z,39.38
2023-04-18T06:58:44.323Z,39.38
2023-04-18T06:59:44.252Z,33.75
2023-04-18T07:00:44.249Z,33.75
2023-04-18T07:01:44.100Z,33.75
2023-04-18T07:02:44.259Z,33.75
2023-04-18T07:03:44.051Z,39.38
2023-04-18T07:04:43.916Z,39.38
2023-04-18T07:05:43.754Z,39.38
2023-04-18T07:06:43.673Z,39.38
2023-04-18T07:07:43.604Z,33.75
2023-04-18T07:08:43.525Z,28.13
2023-04-18T07:09:43.438Z,28.13
2023-04-18T07:10:43.349Z,33.75
2023-04-18T07:11:43.264Z,39.38
2023-04-18T07:12:43.198Z,50.63
2023-04-18T07:13:43.111Z,56.25
2023-04-18T07:14:43.030Z,50.63
2023-04-18T07:15:42.952Z,45.00
2023-04-18T07:16:42.915Z,45.00
2023-04-18T07:17:42.792Z,56.25
2023-04-18T07:18:42.706Z,56.25
2023-04-18T07:19:42.619Z,50.63
2023-04-18T07:20:42.533Z,45.00
2023-04-18T07:21:42.449Z,45.00
2023-04-18T07:22:42.401Z,39.38
2023-04-18T07:23:42.288Z,45.00
2023-04-18T07:24:42.221Z,50.63
2023-04-18T07:25:42.137Z,45.00
2023-04-18T07:26:42.047Z,39.38
2023-04-18T07:27:41.979Z,33.75
2023-04-18T07:28:41.887Z,39.38
2023-04-18T07:29:41.804Z,39.38
2023-04-18T07:30:41.761Z,39.38
2023-04-18T07:31:41.637Z,39.38
2023-04-18T07:32:41.614Z,61.88
2023-04-18T07:33:41.479Z,50.63
2023-04-18T07:34:41.592Z,39.38
2023-04-18T07:35:41.313Z,33.75
2023-04-18T07:36:41.231Z,33.75
2023-04-18T07:37:41.152Z,28.13
2023-04-18T07:38:41.081Z,33.75
2023-04-18T07:39:40.994Z,39.38
2023-04-18T07:40:40.926Z,56.25
2023-04-18T07:41:40.837Z,45.00
2023-04-18T07:42:40.758Z,39.38
2023-04-18T07:43:40.672Z,33.75
2023-04-18T07:44:40.589Z,28.13
2023-04-18T07:45:40.506Z,28.13
2023-04-18T07:46:40.530Z,28.13
2023-04-18T07:47:40.398Z,33.75
2023-04-18T07:48:40.265Z,39.38
2023-04-18T07:49:40.180Z,33.75
2023-04-18T07:50:40.130Z,33.75
2023-04-18T07:51:40.019Z,33.75
2023-04-18T07:52:39.936Z,33.75
2023-04-18T07:53:39.858Z,33.75
2023-04-18T07:54:39.777Z,39.38
2023-04-18T07:55:39.703Z,39.38
2023-04-18T07:56:39.620Z,39.38
2023-04-18T07:57:39.531Z,39.38
2023-04-18T07:58:39.460Z,33.75
2023-04-18T07:59:39.369Z,28.13
2023-04-18T08:00:39.296Z,33.75
2023-04-18T08:01:39.209Z,33.75
2023-04-18T08:02:39.252Z,39.38
2023-04-18T08:03:39.130Z,45.00
2023-04-18T08:04:39.141Z,45.00
2023-04-18T08:05:38.967Z,45.00
2023-04-18T08:06:38.842Z,56.25
2023-04-18T08:07:38.751Z,56.25
2023-04-18T08:08:38.644Z,67.50
2023-04-18T08:09:38.562Z,106.88
2023-04-18T08:10:38.500Z,78.75
2023-04-18T08:11:38.407Z,78.75
2023-04-18T08:12:38.337Z,78.75
2023-04-18T08:13:38.238Z,84.38
2023-04-18T08:14:38.164Z,84.38
2023-04-18T08:15:38.090Z,84.38
2023-04-18T08:16:38.023Z,67.50
2023-04-18T08:17:37.943Z,61.88
2023-04-18T08:18:37.832Z,61.88
2023-04-18T08:19:37.750Z,61.88
2023-04-18T08:20:37.675Z,50.63
2023-04-18T08:21:37.592Z,45.00
2023-04-18T08:22:46.831Z,45.00
2023-04-18T08:23:37.442Z,39.38
2023-04-18T08:24:37.359Z,39.38
2023-04-18T08:25:37.275Z,39.38
2023-04-18T08:26:37.193Z,33.75
2023-04-18T08:27:37.118Z,33.75
2023-04-18T08:28:37.025Z,33.75
2023-04-18T08:29:36.946Z,39.38
2023-04-18T08:30:36.866Z,39.38
2023-04-18T08:31:36.812Z,39.38
2023-04-18T08:32:36.741Z,33.75
2023-04-18T08:33:36.622Z,33.75
2023-04-18T08:34:36.551Z,33.75
2023-04-18T08:35:36.467Z,28.13
2023-04-18T08:36:36.382Z,33.75
2023-04-18T08:37:36.315Z,33.75
2023-04-18T08:38:36.315Z,33.75
2023-04-18T08:39:36.138Z,33.75
2023-04-18T08:40:36.071Z,33.75
2023-04-18T08:41:35.979Z,33.75
2023-04-18T08:42:35.896Z,33.75
2023-04-18T08:43:35.819Z,33.75
2023-04-18T08:44:35.736Z,39.38
2023-04-18T08:45:35.686Z,50.63
2023-04-18T08:46:35.574Z,50.63
2023-04-18T08:47:35.544Z,56.25
2023-04-18T08:48:35.422Z,61.88
2023-04-18T08:49:35.332Z,61.88
2023-04-18T08:50:35.260Z,61.88
2023-04-18T08:51:35.186Z,61.88
2023-04-18T08:52:35.094Z,67.50
2023-04-18T08:53:35.006Z,67.50
2023-04-18T08:54:34.980Z,73.13
2023-04-18T08:55:34.848Z,67.50
2023-04-18T08:56:34.770Z,61.88
2023-04-18T08:57:34.701Z,61.88
2023-04-18T08:58:34.615Z,56.25
2023-04-18T08:59:34.530Z,56.25
2023-04-18T09:00:34.449Z,56.25
2023-04-18T09:01:34.378Z,50.63
2023-04-18T09:02:34.347Z,50.63
2023-04-18T09:03:34.283Z,56.25
2023-04-18T09:04:34.268Z,56.25
2023-04-18T09:05:34.042Z,61.88
2023-04-18T09:06:33.965Z,73.13
2023-04-18T09:07:33.881Z,78.75
2023-04-18T09:08:33.801Z,84.38
2023-04-18T09:09:33.722Z,78.75
2023-04-18T09:10:33.785Z,73.13
2023-04-18T09:11:33.560Z,73.13
2023-04-18T09:12:33.481Z,73.13
2023-04-18T09:13:33.400Z,73.13
2023-04-18T09:14:33.323Z,73.13
2023-04-18T09:15:33.250Z,73.13
2023-04-18T09:16:33.181Z,73.13
2023-04-18T09:17:33.100Z,67.50
2023-04-18T09:18:33.001Z,67.50
2023-04-18T09:19:32.919Z,67.50
2023-04-18T09:20:32.841Z,67.50
2023-04-18T09:21:32.763Z,61.88
2023-04-18T09:22:32.682Z,67.50
2023-04-18T09:23:32.603Z,67.50
2023-04-18T09:24:32.530Z,67.50
2023-04-18T09:25:32.439Z,73.13
2023-04-18T09:26:32.498Z,73.13
2023-04-18T09:27:32.285Z,73.13
2023-04-18T09:28:32.220Z,78.75
2023-04-18T09:29:32.122Z,78.75
2023-04-18T09:30:32.054Z,78.75
2023-04-18T09:31:32.042Z,78.75
2023-04-18T09:32:31.911Z,84.38
2023-04-18T09:33:31.806Z,78.75
2023-04-18T09:34:31.725Z,73.13
2023-04-18T09:35:31.650Z,67.50
2023-04-18T09:36:31.597Z,61.88
2023-04-18T09:37:31.483Z,61.88
2023-04-18T09:38:31.437Z,56.25
2023-04-18T09:39:31.328Z,61.88
2023-04-18T09:40:31.252Z,67.50
2023-04-18T09:41:31.166Z,73.13
2023-04-18T09:42:31.193Z,78.75
2023-04-18T09:43:31.016Z,78.75
2023-04-18T09:44:30.938Z,73.13
2023-04-18T09:45:30.844Z,73.13
2023-04-18T09:46:30.843Z,67.50
2023-04-18T09:47:30.735Z,78.75
2023-04-18T09:48:30.608Z,135.00
2023-04-18T09:49:30.528Z,101.25
2023-04-18T09:50:30.449Z,112.50
2023-04-18T09:51:30.369Z,123.75
2023-04-18T09:52:30.286Z,95.63
2023-04-18T09:53:30.210Z,84.38
2023-04-18T09:54:30.126Z,78.75
2023-04-18T09:55:30.061Z,73.13
2023-04-18T09:56:29.968Z,73.13
2023-04-18T09:57:29.888Z,67.50
2023-04-18T09:58:30.102Z,61.88
2023-04-18T09:59:29.728Z,56.25
2023-04-18T10:00:29.646Z,45.00
2023-04-18T10:01:29.608Z,39.38
2023-04-18T10:02:29.616Z,45.00
2023-04-18T10:03:29.513Z,45.00
2023-04-18T10:04:29.467Z,45.00
2023-04-18T10:05:29.287Z,39.38
2023-04-18T10:06:29.214Z,39.38
2023-04-18T10:07:29.091Z,33.75
2023-04-18T10:08:29.010Z,33.75
2023-04-18T10:09:28.930Z,28.13
2023-04-18T10:10:28.854Z,28.13
2023-04-18T10:11:28.797Z,28.13
2023-04-18T10:12:28.689Z,28.13
2023-04-18T10:13:28.615Z,22.50
2023-04-18T10:14:28.705Z,22.50
2023-04-18T10:15:28.510Z,22.50
2023-04-18T10:16:28.454Z,28.13
2023-04-18T10:17:29.405Z,28.13
2023-04-18T10:18:28.280Z,28.13
2023-04-18T10:19:28.147Z,28.13
2023-04-18T10:20:28.052Z,33.75
2023-04-18T10:21:28.067Z,33.75
2023-04-18T10:22:27.898Z,39.38
2023-04-18T10:23:28.203Z,45.00
2023-04-18T10:24:27.740Z,50.63
2023-04-18T10:25:27.665Z,56.25
2023-04-18T10:26:27.582Z,67.50
2023-04-18T10:27:27.503Z,73.13
2023-04-18T10:28:27.420Z,78.75
2023-04-18T10:29:27.348Z,78.75
2023-04-18T10:30:27.262Z,78.75
2023-04-18T10:31:27.334Z,78.75
2023-04-18T10:32:27.120Z,78.75
2023-04-18T10:33:30.995Z,73.13
2023-04-18T10:34:26.958Z,73.13
2023-04-18T10:35:26.864Z,67.50
2023-04-18T10:36:26.786Z,61.88
2023-04-18T10:37:26.729Z,56.25
2023-04-18T10:38:26.632Z,50.63
2023-04-18T10:39:26.552Z,50.63
2023-04-18T10:40:26.472Z,45.00
2023-04-18T10:41:26.403Z,39.38
2023-04-18T10:42:26.309Z,33.75
2023-04-18T10:43:26.236Z,33.75
2023-04-18T10:44:26.152Z,28.13
2023-04-18T10:45:26.074Z,28.13
2023-04-18T10:46:32.288Z,28.13
2023-04-18T10:47:26.035Z,28.13
2023-04-18T10:48:25.850Z,22.50
2023-04-18T10:49:27.335Z,16.88
2023-04-18T10:50:25.687Z,16.88
2023-04-18T10:51:25.599Z,16.88
2023-04-18T10:52:25.523Z,16.88
2023-04-18T10:53:25.443Z,16.88
2023-04-18T10:54:25.360Z,16.88
2023-04-18T10:55:25.288Z,22.50
2023-04-18T10:56:25.212Z,28.13
2023-04-18T10:57:25.141Z,33.75
2023-04-18T10:58:25.040Z,33.75
2023-04-18T10:59:24.963Z,33.75
2023-04-18T11:00:24.888Z,33.75
2023-04-18T11:01:24.928Z,28.13
2023-04-18T11:02:24.833Z,28.13
2023-04-18T11:03:24.760Z,28.13
2023-04-18T11:04:24.578Z,28.13
2023-04-18T11:05:24.493Z,28.13
2023-04-18T11:06:24.409Z,22.50
2023-04-18T11:07:24.340Z,22.50
2023-04-18T11:08:24.260Z,22.50
2023-04-18T11:09:24.178Z,22.50
2023-04-18T11:10:24.093Z,22.50
2023-04-18T11:11:24.014Z,22.50
2023-04-18T11:12:23.931Z,22.50
2023-04-18T11:13:23.868Z,22.50
2023-04-18T11:14:23.774Z,28.13
2023-04-18T11:15:23.715Z,28.13
2023-04-18T11:16:23.643Z,28.13
2023-04-18T11:17:23.604Z,33.75
2023-04-18T11:18:23.654Z,39.38
2023-04-18T11:19:23.385Z,45.00
2023-04-18T11:20:23.301Z,45.00
2023-04-18T11:21:23.229Z,39.38
2023-04-18T11:22:23.150Z,39.38
2023-04-18T11:23:23.124Z,33.75
2023-04-18T11:24:23.022Z,33.75
2023-04-18T11:25:22.905Z,33.75
2023-04-18T11:26:22.827Z,33.75
2023-04-18T11:27:22.749Z,33.75
2023-04-18T11:28:22.668Z,28.13
2023-04-18T11:29:22.586Z,28.13
2023-04-18T11:30:22.506Z,28.13
2023-04-18T11:31:22.452Z,28.13
2023-04-18T11:32:22.439Z,22.50
2023-04-18T11:33:22.285Z,22.50
2023-04-18T11:34:22.203Z,22.50
2023-04-18T11:35:22.116Z,22.50
2023-04-18T11:36:22.039Z,22.50
2023-04-18T11:37:21.954Z,22.50
2023-04-18T11:38:24.224Z,22.50
2023-04-18T11:39:21.792Z,22.50
2023-04-18T11:40:21.724Z,22.50
2023-04-18T11:41:21.635Z,22.50
2023-04-18T11:42:21.555Z,22.50
2023-04-18T11:43:21.502Z,22.50
2023-04-18T11:44:21.397Z,22.50
2023-04-18T11:45:21.318Z,22.50
2023-04-18T11:46:21.240Z,22.50
2023-04-18T11:47:21.238Z,22.50
2023-04-18T11:48:21.079Z,28.13
2023-04-18T11:49:21.006Z,28.13
2023-04-18T11:50:20.970Z,28.13
2023-04-18T11:51:20.850Z,28.13
2023-04-18T11:52:20.768Z,28.13
2023-04-18T11:53:20.681Z,28.13
2023-04-18T11:54:20.604Z,28.13
2023-04-18T11:55:20.530Z,28.13
2023-04-18T11:56:20.442Z,28.13
2023-04-18T11:57:20.363Z,22.50
2023-04-18T11:58:20.287Z,22.50
2023-04-18T11:59:20.220Z,22.50
2023-04-18T12:00:20.138Z,22.50
2023-04-18T12:01:20.055Z,22.50
2023-04-18T12:02:20.042Z,22.50
2023-04-18T12:03:20.058Z,22.50
2023-04-18T12:04:20.595Z,22.50
2023-04-18T12:05:20.043Z,22.50
2023-04-18T12:06:19.887Z,22.50
2023-04-18T12:07:20.209Z,16.88
2023-04-18T12:08:19.506Z,22.50
2023-04-18T12:09:19.425Z,22.50
2023-04-18T12:10:19.348Z,22.50
2023-04-18T12:11:19.258Z,22.50
2023-04-18T12:12:19.176Z,22.50
2023-04-18T12:13:19.104Z,22.50
2023-04-18T12:14:19.018Z,22.50
2023-04-18T12:15:18.954Z,22.50
2023-04-18T12:16:18.915Z,22.50
2023-04-18T12:17:18.819Z,28.13
2023-04-18T12:18:18.708Z,28.13
2023-04-18T12:19:18.618Z,28.13
2023-04-18T12:20:18.565Z,33.75
2023-04-18T12:21:18.472Z,33.75
2023-04-18T12:22:18.402Z,33.75
2023-04-18T12:23:18.306Z,33.75
2023-04-18T12:24:18.225Z,33.75
2023-04-18T12:25:18.180Z,33.75
2023-04-18T12:26:18.071Z,33.75
2023-04-18T12:27:17.989Z,33.75
2023-04-18T12:28:17.911Z,33.75
2023-04-18T12:29:17.850Z,33.75
2023-04-18T12:30:17.790Z,39.38
2023-04-18T12:31:17.716Z,39.38
2023-04-18T12:32:17.594Z,45.00
2023-04-18T12:33:17.511Z,45.00
2023-04-18T12:34:17.443Z,50.63
2023-04-18T12:35:17.355Z,50.63
2023-04-18T12:36:17.274Z,50.63
2023-04-18T12:37:17.199Z,50.63
2023-04-18T12:38:17.132Z,50.63
2023-04-18T12:39:17.039Z,56.25
2023-04-18T12:40:16.958Z,56.25
2023-04-18T12:41:16.885Z,56.25
2023-04-18T12:42:16.802Z,56.25
2023-04-18T12:43:16.724Z,56.25
2023-04-18T12:44:16.641Z,56.25
2023-04-18T12:45:16.561Z,50.63
2023-04-18T12:46:16.525Z,50.63
2023-04-18T12:47:16.411Z,45.00
2023-04-18T12:48:16.324Z,39.38
2023-04-18T12:49:16.252Z,39.38
2023-04-18T12:50:16.173Z,33.75
2023-04-18T12:51:16.093Z,33.75
2023-04-18T12:52:16.017Z,28.13
2023-04-18T12:53:15.928Z,28.13
2023-04-18T12:54:15.997Z,22.50
2023-04-18T12:55:15.802Z,22.50
2023-04-18T12:56:15.699Z,16.88
2023-04-18T12:57:15.616Z,16.88
2023-04-18T12:58:15.541Z,16.88
2023-04-18T12:59:15.646Z,11.25
2023-04-18T13:00:15.393Z,11.25
2023-04-18T13:01:15.363Z,11.25
2023-04-18T13:02:15.314Z,11.25